createdAt,value
2023-01-09T00:01:32.659Z,82.72
2023-01-09T00:04:01.367Z,82.62
2023-01-09T00:06:29.566Z,82.56
2023-01-09T00:08:57.986Z,82.82
2023-01-09T00:11:26.444Z,82.77
2023-01-09T00:13:54.623Z,82.88
2023-01-09T00:16:22.668Z,83.11
2023-01-09T00:18:50.875Z,83.14
2023-01-09T00:21:20.174Z,83.11
2023-01-09T00:23:48.451Z,83.04
2023-01-09T00:26:20.603Z,83.03
2023-01-09T00:28:50.219Z,83.11
2023-01-09T00:31:18.991Z,82.81
2023-01-09T00:33:59.817Z,82.93
2023-01-09T00:36:28.226Z,82.99
2023-01-09T00:38:56.288Z,82.83
2023-01-09T00:41:31.661Z,82.76
2023-01-09T00:44:08.336Z,82.70
2023-01-09T00:46:40.706Z,82.88
2023-01-09T00:49:10.210Z,82.99
2023-01-09T00:51:40.117Z,82.72
2023-01-09T00:54:12.075Z,82.75
2023-01-09T00:56:40.256Z,82.76
2023-01-09T00:59:08.655Z,82.70
2023-01-09T01:01:36.942Z,82.78
2023-01-09T01:04:25.099Z,82.60
2023-01-09T01:07:11.347Z,82.68
2023-01-09T01:09:39.422Z,83.01
2023-01-09T01:12:07.992Z,82.85
2023-01-09T01:14:38.264Z,82.95
2023-01-09T01:17:07.276Z,82.73
2023-01-09T01:19:35.992Z,82.81
2023-01-09T01:22:04.282Z,82.77
2023-01-09T01:24:32.349Z,82.90
2023-01-09T01:27:00.621Z,82.83
2023-01-09T01:29:28.653Z,83.15
2023-01-09T01:31:56.695Z,83.20
2023-01-09T01:34:25.041Z,83.05
2023-01-09T01:36:53.115Z,83.16
2023-01-09T01:39:21.182Z,83.41
2023-01-09T01:41:49.325Z,83.51
2023-01-09T01:44:54.861Z,83.37
2023-01-09T01:47:28.009Z,83.87
2023-01-09T01:49:56.855Z,83.94
2023-01-09T01:52:26.176Z,84.09
2023-01-09T01:54:55.041Z,84.14
2023-01-09T01:57:23.482Z,84.18
2023-01-09T01:59:56.425Z,84.17
2023-01-09T02:02:30.125Z,84.11
2023-01-09T02:05:00.767Z,84.28
2023-01-09T02:07:28.813Z,84.05
2023-01-09T02:09:58.149Z,84.06
2023-01-09T02:12:28.083Z,84.08
2023-01-09T02:15:07.003Z,84.06
2023-01-09T02:18:16.617Z,84.00
2023-01-09T02:21:09.823Z,84.10
2023-01-09T02:23:59.449Z,84.76
2023-01-09T02:26:48.629Z,84.64
2023-01-09T02:29:38.289Z,84.58
2023-01-09T02:32:18.316Z,84.70
2023-01-09T02:34:52.352Z,84.89
2023-01-09T02:37:39.057Z,84.89
2023-01-09T02:40:17.680Z,84.87
2023-01-09T02:42:47.592Z,84.88
2023-01-09T02:45:15.868Z,84.66
2023-01-09T02:47:47.016Z,84.71
2023-01-09T02:50:23.902Z,84.68
2023-01-09T02:53:27.393Z,84.68
2023-01-09T02:56:13.790Z,84.84
2023-01-09T02:58:50.492Z,85.00
2023-01-09T03:01:32.785Z,84.96
2023-01-09T03:04:09.639Z,84.94
2023-01-09T03:06:47.800Z,84.90
2023-01-09T03:09:20.498Z,84.99
2023-01-09T03:11:55.872Z,84.83
2023-01-09T03:14:26.398Z,85.15
2023-01-09T03:16:58.766Z,84.92
2023-01-09T03:19:31.449Z,85.02
2023-01-09T03:22:01.342Z,85.07
2023-01-09T03:24:29.559Z,85.26
2023-01-09T03:26:57.601Z,85.09
2023-01-09T03:29:25.685Z,85.01
2023-01-09T03:31:53.744Z,85.23
2023-01-09T03:34:21.716Z,85.23
2023-01-09T03:36:49.787Z,85.06
2023-01-09T03:39:17.861Z,85.00
2023-01-09T03:41:45.820Z,85.13
2023-01-09T03:44:13.795Z,85.14
2023-01-09T03:46:41.860Z,85.18
2023-01-09T03:49:09.935Z,85.06
2023-01-09T03:51:37.855Z,85.16
2023-01-09T03:54:05.845Z,85.09
2023-01-09T03:56:33.843Z,84.99
2023-01-09T03:59:01.973Z,85.16
2023-01-09T04:01:30.050Z,85.00
2023-01-09T04:03:58.268Z,85.06
2023-01-09T04:06:26.329Z,84.96
2023-01-09T04:08:54.496Z,85.02
2023-01-09T04:11:22.774Z,84.95
2023-01-09T04:13:50.844Z,85.08
2023-01-09T04:16:19.027Z,85.02
2023-01-09T04:18:47.085Z,85.14
2023-01-09T04:21:15.028Z,85.03
2023-01-09T04:23:43.126Z,85.20
2023-01-09T04:26:11.199Z,85.17
2023-01-09T04:28:39.271Z,85.30
2023-01-09T04:31:07.358Z,85.21
2023-01-09T04:33:35.527Z,85.12
2023-01-09T04:36:03.671Z,85.06
2023-01-09T04:38:31.670Z,85.32
2023-01-09T04:40:59.786Z,85.21
2023-01-09T04:43:28.613Z,85.28
2023-01-09T04:45:56.698Z,85.33
2023-01-09T04:48:24.758Z,85.33
2023-01-09T04:50:52.828Z,85.20
2023-01-09T04:53:20.768Z,85.22
2023-01-09T04:55:48.762Z,85.31
2023-01-09T04:58:16.727Z,85.32
2023-01-09T05:00:44.804Z,85.46
2023-01-09T05:03:12.977Z,85.60
2023-01-09T05:05:41.044Z,85.43
2023-01-09T05:08:09.114Z,85.45
2023-01-09T05:10:37.089Z,85.28
2023-01-09T05:13:05.053Z,85.31
2023-01-09T05:15:33.318Z,85.45
2023-01-09T05:18:01.296Z,85.39
2023-01-09T05:20:29.257Z,85.16
2023-01-09T05:22:57.238Z,85.17
2023-01-09T05:25:25.295Z,85.00
2023-01-09T05:27:53.681Z,85.08
2023-01-09T05:30:21.746Z,85.13
2023-01-09T05:32:49.831Z,85.26
2023-01-09T05:35:17.885Z,85.25
2023-01-09T05:37:46.787Z,85.26
2023-01-09T05:40:14.846Z,85.12
2023-01-09T05:42:44.147Z,85.06
2023-01-09T05:45:12.625Z,85.16
2023-01-09T05:47:41.269Z,85.06
2023-01-09T05:50:10.366Z,84.98
2023-01-09T05:52:38.687Z,84.99
2023-01-09T05:55:08.211Z,85.06
2023-01-09T05:57:36.160Z,85.12
2023-01-09T06:00:05.492Z,84.97
2023-01-09T06:02:34.956Z,84.94
2023-01-09T06:05:03.359Z,85.08
2023-01-09T06:07:31.344Z,84.94
2023-01-09T06:09:59.371Z,85.07
2023-01-09T06:12:27.356Z,84.76
2023-01-09T06:14:55.411Z,84.85
2023-01-09T06:17:23.385Z,84.76
2023-01-09T06:19:51.863Z,85.19
2023-01-09T06:22:19.885Z,84.97
2023-01-09T06:24:47.897Z,84.78
2023-01-09T06:27:15.972Z,84.66
2023-01-09T06:29:43.936Z,84.79
2023-01-09T06:32:12.012Z,84.75
2023-01-09T06:34:39.983Z,84.67
2023-01-09T06:37:08.251Z,84.53
2023-01-09T06:39:36.341Z,84.60
2023-01-09T06:42:05.411Z,84.48
2023-01-09T06:44:33.427Z,84.29
2023-01-09T06:47:01.457Z,84.21
2023-01-09T06:49:29.523Z,84.32
2023-01-09T06:51:57.614Z,84.25
2023-01-09T06:54:27.987Z,84.42
2023-01-09T06:56:56.705Z,84.19
2023-01-09T06:59:24.987Z,84.12
2023-01-09T07:01:53.285Z,84.18
2023-01-09T07:04:24.646Z,84.12
2023-01-09T07:06:52.679Z,84.37
2023-01-09T07:09:20.647Z,84.10
2023-01-09T07:11:48.637Z,84.46
2023-01-09T07:14:16.582Z,84.63
2023-01-09T07:16:44.527Z,84.53
2023-01-09T07:19:12.531Z,84.50
2023-01-09T07:21:40.539Z,84.24
2023-01-09T07:24:08.538Z,84.27
2023-01-09T07:26:36.623Z,84.14
2023-01-09T07:29:04.902Z,84.46
2023-01-09T07:31:33.170Z,84.35
2023-01-09T07:34:01.147Z,84.27
2023-01-09T07:36:29.523Z,84.36
2023-01-09T07:38:57.489Z,84.42
2023-01-09T07:41:25.458Z,84.41
2023-01-09T07:43:53.434Z,84.33
2023-01-09T07:46:21.409Z,84.35
2023-01-09T07:48:49.562Z,84.33
2023-01-09T07:51:17.739Z,84.51
2023-01-09T07:53:45.709Z,84.58
2023-01-09T07:56:13.674Z,84.49
2023-01-09T07:58:41.696Z,84.46
2023-01-09T08:01:09.803Z,84.38
2023-01-09T08:03:38.913Z,84.08
2023-01-09T08:06:07.190Z,83.93
2023-01-09T08:08:35.126Z,83.72
2023-01-09T08:11:03.326Z,83.78
2023-01-09T08:13:31.604Z,83.80
2023-01-09T08:15:59.816Z,84.04
2023-01-09T08:18:27.843Z,84.13
2023-01-09T08:20:56.101Z,84.25
2023-01-09T08:23:24.092Z,84.19
2023-01-09T08:25:53.097Z,83.90
2023-01-09T08:28:21.218Z,84.07
2023-01-09T08:30:49.325Z,84.11
2023-01-09T08:33:17.497Z,83.96
2023-01-09T08:35:45.734Z,84.16
2023-01-09T08:38:15.381Z,84.48
2023-01-09T08:40:43.423Z,84.36
2023-01-09T08:43:30.189Z,84.41
2023-01-09T08:46:17.317Z,84.63
2023-01-09T08:48:45.445Z,84.74
2023-01-09T08:51:13.444Z,84.62
2023-01-09T08:53:41.519Z,84.69
2023-01-09T08:56:10.516Z,84.38
2023-01-09T08:58:38.561Z,84.40
2023-01-09T09:01:07.950Z,84.47
2023-01-09T09:03:36.028Z,84.26
2023-01-09T09:06:04.525Z,84.15
2023-01-09T09:08:32.572Z,84.18
2023-01-09T09:11:01.579Z,84.17
2023-01-09T09:13:29.616Z,84.39
2023-01-09T09:15:57.595Z,84.24
2023-01-09T09:18:25.613Z,84.19
2023-01-09T09:20:53.752Z,83.87
2023-01-09T09:23:23.451Z,83.69
2023-01-09T09:25:51.530Z,84.08
2023-01-09T09:28:19.697Z,83.86
2023-01-09T09:30:47.784Z,83.93
2023-01-09T09:33:15.835Z,83.71
2023-01-09T09:35:43.914Z,83.70
2023-01-09T09:38:13.517Z,83.63
2023-01-09T09:40:56.781Z,83.61
2023-01-09T09:43:46.488Z,84.03
2023-01-09T09:46:20.363Z,84.11
2023-01-09T09:49:07.145Z,83.82
2023-01-09T09:52:02.560Z,84.11
2023-01-09T09:54:40.033Z,84.03
2023-01-09T09:57:14.873Z,83.96
2023-01-09T09:59:44.754Z,84.06
2023-01-09T10:02:33.187Z,83.66
2023-01-09T10:05:17.150Z,83.42
2023-01-09T10:07:49.150Z,83.38
2023-01-09T10:10:32.369Z,83.23
2023-01-09T10:13:21.033Z,83.16
2023-01-09T10:16:06.112Z,83.21
2023-01-09T10:19:11.222Z,83.21
2023-01-09T10:21:39.315Z,83.48
2023-01-09T10:24:07.255Z,83.53
2023-01-09T10:26:45.654Z,83.31
2023-01-09T10:29:40.180Z,83.34
2023-01-09T10:32:28.221Z,83.34
2023-01-09T10:35:21.049Z,83.52
2023-01-09T10:37:53.494Z,83.29
2023-01-09T10:40:30.703Z,83.28
2023-01-09T10:43:11.245Z,83.08
2023-01-09T10:45:50.620Z,83.03
2023-01-09T10:48:30.575Z,83.26
2023-01-09T10:51:00.242Z,83.41
2023-01-09T10:53:42.639Z,83.57
2023-01-09T10:56:21.599Z,83.45
2023-01-09T10:58:51.607Z,83.33
2023-01-09T11:01:40.213Z,83.16
2023-01-09T11:04:34.168Z,83.25
2023-01-09T11:07:07.135Z,83.13
2023-01-09T11:09:56.941Z,83.18
2023-01-09T11:12:27.714Z,83.15
2023-01-09T11:14:56.178Z,83.03
2023-01-09T11:17:27.360Z,83.08
2023-01-09T11:20:15.057Z,82.85
2023-01-09T11:22:47.529Z,82.63
2023-01-09T11:25:18.313Z,82.70
2023-01-09T11:28:18.500Z,82.47
2023-01-09T11:30:56.941Z,82.27
2023-01-09T11:33:27.747Z,82.42
2023-01-09T11:36:15.842Z,82.46
2023-01-09T11:38:51.485Z,82.22
2023-01-09T11:41:22.385Z,82.11
2023-01-09T11:43:53.045Z,82.27
2023-01-09T11:46:34.697Z,82.02
2023-01-09T11:49:06.051Z,81.71
2023-01-09T11:51:35.795Z,81.67
2023-01-09T11:54:27.757Z,81.64
2023-01-09T11:56:56.627Z,81.89
2023-01-09T11:59:31.319Z,82.01
2023-01-09T12:02:17.906Z,81.73
2023-01-09T12:04:59.388Z,81.85
2023-01-09T12:07:54.218Z,81.63
2023-01-09T12:10:47.309Z,81.57
2023-01-09T12:14:11.900Z,81.55
2023-01-09T12:17:18.117Z,81.60
2023-01-09T12:20:17.835Z,81.64
2023-01-09T12:22:57.498Z,81.62
2023-01-09T12:25:53.350Z,81.42
2023-01-09T12:28:50.799Z,81.63
2023-01-09T12:31:28.814Z,81.53
2023-01-09T12:34:11.873Z,81.39
2023-01-09T12:36:47.048Z,81.35
2023-01-09T12:39:52.720Z,81.20
2023-01-09T12:42:20.750Z,81.29
2023-01-09T12:45:15.082Z,81.44
2023-01-09T12:47:46.593Z,81.55
2023-01-09T12:50:14.639Z,81.39
2023-01-09T12:53:05.930Z,81.14
2023-01-09T12:55:39.845Z,81.18
2023-01-09T12:58:20.438Z,81.12
2023-01-09T13:00:51.919Z,80.85
2023-01-09T13:03:35.606Z,80.77
2023-01-09T13:06:10.868Z,80.54
2023-01-09T13:08:47.965Z,80.66
2023-01-09T13:11:24.579Z,80.60
2023-01-09T13:14:19.241Z,80.61
2023-01-09T13:16:50.579Z,80.50
2023-01-09T13:19:25.576Z,80.46
2023-01-09T13:21:56.341Z,80.46
2023-01-09T13:25:06.240Z,80.32
2023-01-09T13:27:41.112Z,80.42
2023-01-09T13:30:12.367Z,80.55
2023-01-09T13:33:10.327Z,80.82
2023-01-09T13:35:52.737Z,81.05
2023-01-09T13:38:26.479Z,81.02
2023-01-09T13:41:32.872Z,80.94
2023-01-09T13:44:04.071Z,80.85
2023-01-09T13:46:44.792Z,80.66
2023-01-09T13:49:51.955Z,80.73
2023-01-09T13:52:38.832Z,80.78
2023-01-09T13:55:14.862Z,80.80
2023-01-09T13:58:04.650Z,80.57
2023-01-09T14:00:35.301Z,80.60
2023-01-09T14:03:17.447Z,80.78
2023-01-09T14:05:45.517Z,80.72
2023-01-09T14:08:19.775Z,80.56
2023-01-09T14:10:49.412Z,80.57
2023-01-09T14:13:23.552Z,80.63
2023-01-09T14:16:01.628Z,80.60
2023-01-09T14:18:33.759Z,80.50
2023-01-09T14:21:04.861Z,80.46
2023-01-09T14:23:57.368Z,80.40
2023-01-09T14:26:45.289Z,80.42
2023-01-09T14:29:29.459Z,80.22
2023-01-09T14:32:22.403Z,80.52
2023-01-09T14:34:57.443Z,80.85
2023-01-09T14:37:28.720Z,81.04
2023-01-09T14:39:58.583Z,81.04
2023-01-09T14:42:31.060Z,81.21
2023-01-09T14:45:19.440Z,81.07
2023-01-09T14:47:56.830Z,81.10
2023-01-09T14:50:47.360Z,81.28
2023-01-09T14:53:20.424Z,81.51
2023-01-09T14:55:54.930Z,81.55
2023-01-09T14:58:31.811Z,81.74
2023-01-09T15:01:19.025Z,81.68
2023-01-09T15:03:52.168Z,81.88
2023-01-09T15:06:25.630Z,81.99
2023-01-09T15:09:18.145Z,81.88
2023-01-09T15:11:46.683Z,81.71
2023-01-09T15:14:40.054Z,81.82
2023-01-09T15:17:20.921Z,81.86
2023-01-09T15:19:49.291Z,82.22
2023-01-09T15:22:25.655Z,82.20
2023-01-09T15:24:53.708Z,82.12
2023-01-09T15:27:24.985Z,82.22
2023-01-09T15:29:53.464Z,82.22
2023-01-09T15:32:27.662Z,82.14
2023-01-09T15:34:57.636Z,82.34
2023-01-09T15:37:25.532Z,82.38
2023-01-09T15:39:54.614Z,82.44
2023-01-09T15:42:52.501Z,82.19
2023-01-09T15:45:26.575Z,82.42
2023-01-09T15:48:13.933Z,82.10
2023-01-09T15:50:42.634Z,82.24
2023-01-09T15:53:16.592Z,82.23
2023-01-09T15:55:46.648Z,82.36
2023-01-09T15:58:29.219Z,82.21
2023-01-09T16:01:00.628Z,82.31
2023-01-09T16:03:29.247Z,82.28
2023-01-09T16:06:07.472Z,82.39
2023-01-09T16:08:42.401Z,82.43
2023-01-09T16:11:25.118Z,82.43
2023-01-09T16:13:55.289Z,82.55
2023-01-09T16:16:34.225Z,82.51
2023-01-09T16:19:02.252Z,82.58
2023-01-09T16:21:35.161Z,82.42
2023-01-09T16:24:25.236Z,82.53
2023-01-09T16:27:24.012Z,82.51
2023-01-09T16:29:57.595Z,82.46
2023-01-09T16:32:33.574Z,82.46
2023-01-09T16:35:14.668Z,82.24
2023-01-09T16:37:42.617Z,82.36
2023-01-09T16:40:26.513Z,82.62
2023-01-09T16:43:01.473Z,82.59
2023-01-09T16:45:34.411Z,82.39
2023-01-09T16:48:10.321Z,82.51
2023-01-09T16:50:38.302Z,82.44
2023-01-09T16:53:25.724Z,82.52
2023-01-09T16:55:54.513Z,82.69
2023-01-09T16:58:32.510Z,82.78
2023-01-09T17:01:00.619Z,82.43
2023-01-09T17:03:28.688Z,82.50
2023-01-09T17:05:59.081Z,82.67
2023-01-09T17:08:30.747Z,82.56
2023-01-09T17:10:58.951Z,82.76
2023-01-09T17:13:27.371Z,82.49
2023-01-09T17:15:56.771Z,82.64
2023-01-09T17:18:27.365Z,82.64
2023-01-09T17:20:58.318Z,82.84
2023-01-09T17:23:26.361Z,82.93
2023-01-09T17:26:18.619Z,82.75
2023-01-09T17:28:51.644Z,82.91
2023-01-09T17:31:19.882Z,82.77
2023-01-09T17:33:47.865Z,82.94
2023-01-09T17:36:32.483Z,83.02
2023-01-09T17:39:01.457Z,82.96
2023-01-09T17:41:31.281Z,83.07
2023-01-09T17:44:00.156Z,82.78
2023-01-09T17:46:34.882Z,82.54
2023-01-09T17:49:04.073Z,82.81
2023-01-09T17:51:32.468Z,82.82
2023-01-09T17:54:00.455Z,82.68
2023-01-09T17:56:33.174Z,82.64
2023-01-09T17:59:01.186Z,82.47
2023-01-09T18:01:29.334Z,82.24
2023-01-09T18:03:57.362Z,82.01
2023-01-09T18:06:25.452Z,82.17
2023-01-09T18:08:53.409Z,81.91
2023-01-09T18:11:22.336Z,81.80
2023-01-09T18:13:54.006Z,81.81
2023-01-09T18:16:24.734Z,81.74
2023-01-09T18:18:54.432Z,81.93
2023-01-09T18:21:24.005Z,81.95
2023-01-09T18:23:52.087Z,81.83
2023-01-09T18:26:21.448Z,81.84
2023-01-09T18:28:54.540Z,81.99
2023-01-09T18:31:24.156Z,82.16
2023-01-09T18:33:53.969Z,81.96
2023-01-09T18:36:24.519Z,82.00
2023-01-09T18:38:53.684Z,82.02
2023-01-09T18:41:22.899Z,82.07
2023-01-09T18:43:52.842Z,82.01
2023-01-09T18:46:24.723Z,81.94
2023-01-09T18:48:54.105Z,82.07
2023-01-09T18:51:24.047Z,82.16
2023-01-09T18:53:52.600Z,81.95
2023-01-09T18:56:21.552Z,81.98
2023-01-09T18:58:49.647Z,81.65
2023-01-09T19:01:17.731Z,81.60
2023-01-09T19:03:46.244Z,81.54
2023-01-09T19:06:14.391Z,81.39
2023-01-09T19:08:42.500Z,81.15
2023-01-09T19:11:10.667Z,81.15
2023-01-09T19:13:38.812Z,81.19
2023-01-09T19:16:09.179Z,81.23
2023-01-09T19:18:39.901Z,81.10
2023-01-09T19:21:19.582Z,81.27
2023-01-09T19:23:48.525Z,81.36
2023-01-09T19:26:21.591Z,81.46
2023-01-09T19:28:50.456Z,81.33
2023-01-09T19:31:18.560Z,81.52
2023-01-09T19:33:46.624Z,81.70
2023-01-09T19:36:14.753Z,81.78
2023-01-09T19:38:43.706Z,81.63
2023-01-09T19:41:14.642Z,81.52
2023-01-09T19:43:42.657Z,81.48
2023-01-09T19:46:14.294Z,81.38
2023-01-09T19:48:45.328Z,81.32
2023-01-09T19:51:15.720Z,81.37
2023-01-09T19:53:44.059Z,81.29
2023-01-09T19:56:16.391Z,81.31
2023-01-09T19:58:52.614Z,81.18
2023-01-09T20:01:24.885Z,80.98
2023-01-09T20:03:54.526Z,81.04
2023-01-09T20:06:27.696Z,81.05
2023-01-09T20:08:57.467Z,80.91
2023-01-09T20:11:27.690Z,81.03
2023-01-09T20:13:56.101Z,81.02
2023-01-09T20:16:28.633Z,80.90
2023-01-09T20:18:58.842Z,80.83
2023-01-09T20:21:28.583Z,80.88
2023-01-09T20:23:59.077Z,80.92
2023-01-09T20:26:28.424Z,80.96
2023-01-09T20:28:58.137Z,81.12
2023-01-09T20:31:28.447Z,81.01
2023-01-09T20:33:59.073Z,80.91
2023-01-09T20:36:30.414Z,80.94
2023-01-09T20:39:00.644Z,80.97
2023-01-09T20:41:31.042Z,81.02
2023-01-09T20:44:07.299Z,80.95
2023-01-09T20:46:41.524Z,81.24
2023-01-09T20:49:13.056Z,81.21
2023-01-09T20:51:46.818Z,81.15
2023-01-09T20:54:15.608Z,81.40
2023-01-09T20:56:43.693Z,81.30
2023-01-09T20:59:14.648Z,81.27
2023-01-09T21:01:43.095Z,81.17
2023-01-09T21:04:11.159Z,81.26
2023-01-09T21:06:39.204Z,81.11
2023-01-09T21:09:07.241Z,81.02
2023-01-09T21:11:35.336Z,81.16
2023-01-09T21:14:03.402Z,81.22
2023-01-09T21:16:31.608Z,81.63
2023-01-09T21:18:59.608Z,81.89
2023-01-09T21:21:27.861Z,82.01
2023-01-09T21:23:58.815Z,82.00
2023-01-09T21:26:30.736Z,82.04
2023-01-09T21:29:00.900Z,82.02
2023-01-09T21:31:34.748Z,81.91
2023-01-09T21:34:07.323Z,82.00
2023-01-09T21:36:35.927Z,82.14
2023-01-09T21:39:07.868Z,82.24
2023-01-09T21:41:55.362Z,82.19
2023-01-09T21:44:41.868Z,82.36
2023-01-09T21:47:09.893Z,82.53
2023-01-09T21:49:42.962Z,82.41
2023-01-09T21:52:13.207Z,82.64
2023-01-09T21:54:41.820Z,82.69
2023-01-09T21:57:10.575Z,82.89
2023-01-09T21:59:38.972Z,82.93
2023-01-09T22:02:12.522Z,82.79
2023-01-09T22:04:42.908Z,82.70
2023-01-09T22:07:11.380Z,82.70
2023-01-09T22:09:39.408Z,82.72
2023-01-09T22:12:07.424Z,82.63
2023-01-09T22:14:35.441Z,82.61
2023-01-09T22:17:03.494Z,82.65
2023-01-09T22:19:31.480Z,82.79
2023-01-09T22:22:00.022Z,82.74
2023-01-09T22:24:28.254Z,82.64
2023-01-09T22:26:56.258Z,82.62
2023-01-09T22:29:24.405Z,82.54
2023-01-09T22:31:52.531Z,82.54
2023-01-09T22:34:20.513Z,82.59
2023-01-09T22:36:48.535Z,82.39
2023-01-09T22:39:18.537Z,82.33
2023-01-09T22:41:51.459Z,82.47
2023-01-09T22:44:19.595Z,82.60
2023-01-09T22:46:47.663Z,82.60
2023-01-09T22:49:15.594Z,82.48
2023-01-09T22:51:43.916Z,82.19
2023-01-09T22:54:11.987Z,82.26
2023-01-09T22:56:39.969Z,82.24
2023-01-09T22:59:08.122Z,82.11
2023-01-09T23:01:36.131Z,82.05
2023-01-09T23:04:05.001Z,82.03
2023-01-09T23:06:33.019Z,82.09
2023-01-09T23:09:01.009Z,82.14
2023-01-09T23:11:49.601Z,82.02
2023-01-09T23:14:17.942Z,82.03
2023-01-09T23:16:46.063Z,82.06
2023-01-09T23:19:16.955Z,81.97
2023-01-09T23:21:45.721Z,81.84
2023-01-09T23:24:18.360Z,81.67
2023-01-09T23:26:46.558Z,81.60
2023-01-09T23:29:14.784Z,81.53
2023-01-09T23:31:42.845Z,81.62
2023-01-09T23:34:15.241Z,81.69
2023-01-09T23:36:43.955Z,81.62
2023-01-09T23:39:12.058Z,81.39
2023-01-09T23:41:59.847Z,81.37
2023-01-09T23:44:28.518Z,81.54
2023-01-09T23:46:56.527Z,81.52
2023-01-09T23:49:24.616Z,81.65
2023-01-09T23:51:52.616Z,81.54
2023-01-09T23:54:20.653Z,81.47
2023-01-09T23:56:48.719Z,81.45
2023-01-09T23:59:18.094Z,81.37
